Aérodrome :
LOGIN :

S'inscrire | Disclaimer

   EN    FR    IT 

 










Légende :    VFR   VFR Marginal   IFR   IFR Intensif   IFR Très Intensif
Visi : 
Plafond : 
>= 8 km
>= 3000ft
5 à 8 km
1000 à 3000 ft
1500m à 5 km
500 à 1000 ft
800 à 1500m
200 à 500 ft
< 800m
< 200 ft
Symboles :   Orages  Brouillard  Fortes neiges  Fortes précipitations  Vent > 20 kt
SIGMETs :   Divers  Orages  Givrage  Turbulence  Onde Orograph.  Cendres Volcan.







- Altitude de l'aérodrome : 2297 ft


LEGA - Armilla

DERNIER METAR :
  • 241100Z 17014KT 9999 BKN043 13/04 Q1013

METARs EXPIRÉS :
  • 241000Z 20011KT 180V240 9999 BKN047 14/04 Q1012
  • 240900Z 23007KT 180V270 9999 BKN042 12/03 Q1012

TAF TAF LEGA
Valide du 24 à 12h jusqu'au 24 à 21h UTC


241100Z 2412/2421 19012KT 9999 SCT025 BKN040
Pas de NOTAMs connus pour ce terrain.
3 SIGMETs publiés pour la FIR Madrid (LECM) :
 
Turbulence forte
LECM SIGMET 3 VALID 241143/241530 LEVA
LECM MADRID FIR SEV TURB FCST WI N4247 W00241 - N4114 W00038 - N4019 W00058 - N4240 W00405 - N4247 W00241 SFC/FL090 STNR NC=
Turbulence forte
LECM SIGMET 2 VALID 241139/241530 LEVA
LECM MADRID FIR SEV TURB FCST WI N4335 W00756 - N4321 W00143 - N4257 W00110 - N4224 W00731 - N4335 W00756 SFC/FL110 STNR NC=
Turbulence forte
LECM SIGMET 1 VALID 241134/241530 LEVA
LECM MADRID FIR SEV TURB FCST WI N3957 W00652 - N3953 W00417 - N4149 W00429 - N4148 W00625 - N3957 W00652 SFC/FL090 STNR NC=



MET'MAP, la Météo Aéronautique d'un coup d'oeil ! - Copyright ORBIFLY Décembre 2007 - Disclaimer

ORBIFLY MET'MAP TEAM :

Programmation & Développement : Alexandra Zaïnal
Conception & Développement : Baudouin d'Aumeries
Co-Programmation & Développement : Marc-Olivier Méhu
Soutien technique & logistique : Manuel Goepfert

Contact : metmap@orbifly.com




SOURCES & CREDITS :

   NOAA